Terminal Aerodrome Forecast
Issued by NWS Boston, MA

Home | Current Version | Previous Version | Text Only | Print | Product List | Glossary On
Versions: 1 2 3 4 5 6 7 8 9 10 11 12 13 14 15 16 17 18 19 20 21 22 23 24 25 26
000
FTUS41 KBOX 191120
TAFORH
TAF
KORH 191120Z 1912/2012 04007KT 1/2SM FG OVC002
     FM191400 04007KT 3/4SM BR OVC003
     FM191700 05009KT 6SM -SHRA BR OVC010
     FM192100 05010G18KT 3SM SHRA BR OVC010=

USA.gov is the U.S. government's official web portal to all federal, state and local government web resources and services.